Time;durP1;ratioP1;P1;durP2;ratioP2;P2;SDS_P1;SDS_P2;PMS_P1;PMS_P2;Temp;Humidity;BMP_temperature;BMP_pressure;BME280_temperature;BME280_humidity;BME280_pressure;Samples;Min_cycle;Max_cycle;Signal;HPM_P1;HPM_P2
2023/06/14 00:00:10;;;;;;;3.95;2.40;;;;;;;-148.88;48.21;-17125.47;4973922;28;20097;-70
2023/06/14 00:02:35;;;;;;;4.47;2.70;;;;;;;-148.88;48.42;-17125.47;4974232;28;20438;-70
2023/06/14 00:05:01;;;;;;;4.05;2.45;;;;;;;-148.88;48.11;-17125.47;4972524;28;20541;-70
2023/06/14 00:07:38;;;;;;;4.47;2.40;;;;;;;-148.88;48.74;-17125.47;4974131;28;20029;-71
2023/06/14 00:10:04;;;;;;;4.88;2.60;;;;;;;-148.88;49.16;-17125.47;4973680;28;20023;-70
2023/06/14 00:12:31;;;;;;;5.03;2.60;;;;;;;-148.88;50.36;-17125.47;4973823;28;20070;-71
2023/06/14 00:14:56;;;;;;;4.75;2.58;;;;;;;-148.88;50.75;-17125.47;4973715;28;20019;-71
2023/06/14 00:17:22;;;;;;;5.10;2.53;;;;;;;-148.88;50.44;-17125.47;4973809;28;20397;-71
2023/06/14 00:19:47;;;;;;;7.47;2.90;;;;;;;-148.88;50.53;-17125.47;4973944;28;20394;-71
2023/06/14 00:22:13;;;;;;;5.38;2.30;;;;;;;-148.88;51.02;-17125.47;4973843;28;20025;-70
2023/06/14 00:24:38;;;;;;;3.63;2.42;;;;;;;-148.88;50.44;-17125.47;4973894;28;20034;-71
2023/06/14 00:27:04;;;;;;;5.00;2.67;;;;;;;-148.88;50.97;-17125.47;4973762;28;20474;-71
2023/06/14 00:29:29;;;;;;;4.35;2.17;;;;;;;-148.88;50.80;-17125.47;4973747;28;20038;-71
2023/06/14 00:31:55;;;;;;;5.22;2.67;;;;;;;-148.88;51.69;-17125.47;4974038;28;20023;-70
2023/06/14 00:34:20;;;;;;;5.25;2.60;;;;;;;-148.88;51.97;-17125.47;4973906;28;20069;-70
2023/06/14 00:36:45;;;;;;;4.70;2.40;;;;;;;-148.88;52.11;-17125.47;4973523;28;20117;-70
2023/06/14 00:39:11;;;;;;;5.28;2.95;;;;;;;-148.88;51.64;-17125.47;4972560;28;20030;-70
2023/06/14 00:41:37;;;;;;;3.22;2.10;;;;;;;-148.88;52.55;-17125.47;4973668;28;20106;-70
2023/06/14 00:44:03;;;;;;;4.55;2.47;;;;;;;-148.88;52.46;-17125.47;4973616;28;20062;-70
2023/06/14 00:46:28;;;;;;;3.75;2.53;;;;;;;-148.88;52.37;-17125.47;4975191;28;20041;-70
2023/06/14 00:48:55;;;;;;;5.13;2.50;;;;;;;-148.88;52.91;-17125.47;4976365;28;20023;-70
2023/06/14 00:51:21;;;;;;;4.38;2.65;;;;;;;-148.88;52.74;-17125.47;4977561;28;20038;-71
2023/06/14 00:53:47;;;;;;;6.72;2.50;;;;;;;-148.88;53.38;-17125.47;4977594;28;20034;-71
2023/06/14 00:56:14;;;;;;;5.93;2.60;;;;;;;-148.88;53.81;-17125.47;4985086;23;20031;-84
2023/06/14 00:58:40;;;;;;;7.30;2.70;;;;;;;-148.88;53.15;-17125.47;4960985;28;20085;-86
2023/06/14 01:01:05;;;;;;;7.10;2.65;;;;;;;-148.88;53.18;-17125.47;4958308;28;20161;-86
2023/06/14 01:03:32;;;;;;;5.53;2.70;;;;;;;-148.88;54.12;-17125.47;4958061;29;20019;-86
2023/06/14 01:06:33;;;;;;;4.85;2.55;;;;;;;-148.88;54.55;-17125.47;4958762;29;20548;-86
2023/06/14 01:09:14;;;;;;;3.95;2.63;;;;;;;-148.88;55.57;-17125.47;4929507;29;20529;-86
2023/06/14 01:12:08;;;;;;;3.85;2.60;;;;;;;-148.88;54.85;-17125.47;4975609;23;20058;-86
2023/06/14 01:14:35;;;;;;;4.97;2.67;;;;;;;-148.88;55.16;-17125.47;4975644;28;20042;-86
2023/06/14 01:17:02;;;;;;;5.32;3.08;;;;;;;-148.88;55.36;-17125.47;4977574;28;20046;-85
2023/06/14 01:19:28;;;;;;;5.00;2.80;;;;;;;-148.88;55.97;-17125.47;4977667;28;20023;-85
2023/06/14 01:21:55;;;;;;;5.90;2.75;;;;;;;-148.88;56.16;-17125.47;4992496;28;20122;-86
2023/06/14 01:24:25;;;;;;;5.22;2.78;;;;;;;-148.88;57.18;-17125.47;4976624;28;20030;-86
2023/06/14 01:26:55;;;;;;;4.30;2.65;;;;;;;-148.88;57.07;-17125.47;4977579;28;20365;-86
2023/06/14 01:29:23;;;;;;;6.35;2.90;;;;;;;-148.88;57.32;-17125.47;4976173;28;20073;-86
2023/06/14 01:31:50;;;;;;;3.88;2.92;;;;;;;-148.88;57.98;-17125.47;4976260;28;20033;-86
2023/06/14 01:34:15;;;;;;;6.20;2.97;;;;;;;-148.88;57.42;-17125.47;4976511;28;20034;-86
2023/06/14 01:36:46;;;;;;;5.28;2.55;;;;;;;-148.88;57.77;-17125.47;4976039;28;20401;-85
2023/06/14 01:39:14;;;;;;;5.00;2.92;;;;;;;-148.88;58.21;-17125.47;4992409;28;20034;-86
2023/06/14 01:41:40;;;;;;;5.55;2.97;;;;;;;-148.88;57.76;-17125.47;4975991;28;20486;-86
2023/06/14 01:44:07;;;;;;;5.20;2.72;;;;;;;-148.88;57.78;-17125.47;4977290;28;20157;-86
2023/06/14 01:46:32;;;;;;;7.10;2.83;;;;;;;-148.88;57.81;-17125.47;4976989;28;20030;-86
2023/06/14 01:48:58;;;;;;;4.18;2.25;;;;;;;-148.88;57.96;-17125.47;4975434;28;20026;-86
2023/06/14 01:51:24;;;;;;;5.90;2.90;;;;;;;-148.88;58.74;-17125.47;4976957;28;20038;-86
2023/06/14 01:53:49;;;;;;;4.05;2.45;;;;;;;-148.88;58.82;-17125.47;4976910;28;20027;-86
2023/06/14 01:56:15;;;;;;;4.78;2.70;;;;;;;-148.88;58.83;-17125.47;4976937;28;20057;-86
2023/06/14 01:58:40;;;;;;;5.63;2.58;;;;;;;-148.88;59.43;-17125.47;4976559;28;20030;-86
2023/06/14 02:01:07;;;;;;;7.40;2.95;;;;;;;-148.88;60.01;-17125.47;4977041;28;20062;-86
2023/06/14 02:03:32;;;;;;;5.63;3.17;;;;;;;-148.88;60.66;-17125.47;4975639;28;20501;-86
2023/06/14 02:05:58;;;;;;;5.38;3.22;;;;;;;-148.88;61.06;-17125.47;4976992;28;20030;-87
2023/06/14 02:08:24;;;;;;;8.43;3.65;;;;;;;-148.88;60.85;-17125.47;4976615;28;20106;-86
2023/06/14 02:10:49;;;;;;;8.48;3.05;;;;;;;-148.88;60.62;-17125.47;4976696;28;20186;-87
2023/06/14 02:13:15;;;;;;;5.75;3.22;;;;;;;-148.88;61.80;-17125.47;4977211;28;20082;-86
2023/06/14 02:15:43;;;;;;;5.25;3.25;;;;;;;-148.88;61.08;-17125.47;4976599;28;20038;-86
2023/06/14 02:18:09;;;;;;;5.05;2.80;;;;;;;-148.88;62.09;-17125.47;4976464;28;20023;-87
2023/06/14 02:20:35;;;;;;;4.80;2.78;;;;;;;-148.88;62.31;-17125.47;4976736;28;20034;-86
2023/06/14 02:23:01;;;;;;;5.22;3.13;;;;;;;-148.88;62.43;-17125.47;4975448;28;20019;-86
2023/06/14 02:25:27;;;;;;;5.00;2.83;;;;;;;-148.88;62.44;-17125.47;4976564;28;20019;-86
2023/06/14 02:27:54;;;;;;;6.38;2.80;;;;;;;-148.88;62.57;-17125.47;4976401;28;20031;-86
2023/06/14 02:30:20;;;;;;;7.65;3.50;;;;;;;-148.88;62.40;-17125.47;4974878;28;20030;-86
2023/06/14 02:32:46;;;;;;;6.57;3.20;;;;;;;-148.88;63.37;-17125.47;4976031;28;20022;-86
2023/06/14 02:35:13;;;;;;;6.00;3.30;;;;;;;-148.88;62.70;-17125.47;4975534;28;20027;-86
2023/06/14 02:37:38;;;;;;;6.40;3.10;;;;;;;-148.88;62.98;-17125.47;4976359;28;20037;-86
2023/06/14 02:40:05;;;;;;;6.38;3.08;;;;;;;-148.88;63.61;-17125.47;4974922;28;20022;-86
2023/06/14 02:42:31;;;;;;;6.35;3.05;;;;;;;-148.88;63.24;-17125.47;4976015;28;20015;-86
2023/06/14 02:44:56;;;;;;;4.55;3.10;;;;;;;-148.88;63.26;-17125.47;4976386;28;20027;-86
2023/06/14 02:47:22;;;;;;;4.93;2.80;;;;;;;-148.88;63.26;-17125.47;4976207;28;20105;-86
2023/06/14 02:49:47;;;;;;;7.15;3.40;;;;;;;-148.88;64.16;-17125.47;4974944;28;20117;-87
2023/06/14 02:52:12;;;;;;;8.38;3.08;;;;;;;-148.88;64.57;-17125.47;4974805;28;20029;-86
2023/06/14 02:54:38;;;;;;;7.75;3.60;;;;;;;-148.88;64.57;-17125.47;4974902;28;20488;-86
2023/06/14 02:57:03;;;;;;;4.75;3.00;;;;;;;-148.88;63.50;-17125.47;4976001;28;20033;-86
2023/06/14 02:59:29;;;;;;;5.50;2.58;;;;;;;-148.88;64.10;-17125.47;4975946;28;20043;-86
2023/06/14 03:01:55;;;;;;;6.78;2.92;;;;;;;-148.88;63.68;-17125.47;4974457;28;20030;-86
2023/06/14 03:04:20;;;;;;;6.95;3.30;;;;;;;-148.88;63.47;-17125.47;4975871;28;20492;-86
2023/06/14 03:06:50;;;;;;;6.03;2.90;;;;;;;-148.88;63.71;-17125.47;4975894;28;20050;-86
2023/06/14 03:09:15;;;;;;;5.65;3.28;;;;;;;-148.88;63.96;-17125.47;4974963;28;20019;-86
2023/06/14 03:11:41;;;;;;;3.78;2.92;;;;;;;-148.88;63.90;-17125.47;4974464;28;20358;-86
2023/06/14 03:14:08;;;;;;;4.70;2.75;;;;;;;-148.88;64.49;-17125.47;4975468;28;20508;-86
2023/06/14 03:16:34;;;;;;;4.28;3.05;;;;;;;-148.88;64.17;-17125.47;4974408;28;20031;-88
2023/06/14 03:18:59;;;;;;;4.07;2.72;;;;;;;-148.88;64.62;-17125.47;4975676;28;20027;-89
2023/06/14 03:21:25;;;;;;;6.72;2.85;;;;;;;-148.88;65.14;-17125.47;4974679;28;20029;-91
2023/06/14 03:24:00;;;;;;;4.15;2.90;;;;;;;-148.88;65.43;-17125.47;4974475;28;20027;-86
2023/06/14 03:26:31;;;;;;;5.88;3.08;;;;;;;-148.88;65.39;-17125.47;4975673;28;20026;-88
2023/06/14 03:28:56;;;;;;;6.68;2.92;;;;;;;-148.88;65.36;-17125.47;4976077;28;20038;-87
2023/06/14 03:31:22;;;;;;;3.38;2.70;;;;;;;-148.88;65.76;-17125.47;4974001;28;20027;-86
2023/06/14 03:33:47;;;;;;;6.00;3.05;;;;;;;-148.88;65.56;-17125.47;4975295;28;20038;-88
2023/06/14 03:36:12;;;;;;;4.03;2.70;;;;;;;-148.88;65.93;-17125.47;4973744;28;20035;-88
2023/06/14 03:38:38;;;;;;;8.02;3.15;;;;;;;-148.88;66.49;-17125.47;4974008;28;20029;-86
2023/06/14 03:41:03;;;;;;;6.00;3.45;;;;;;;-148.88;66.25;-17125.47;4973832;28;20113;-87
2023/06/14 03:43:30;;;;;;;8.60;2.97;;;;;;;-148.88;66.36;-17125.47;4974935;28;20023;-86
2023/06/14 03:45:55;;;;;;;5.90;3.28;;;;;;;-148.88;66.31;-17125.47;4975002;28;20026;-85
2023/06/14 03:48:20;;;;;;;5.57;2.83;;;;;;;-148.88;67.29;-17125.47;4973583;28;20033;-84
2023/06/14 03:51:13;;;;;;;5.40;3.10;;;;;;;-148.88;67.05;-17125.47;4974923;28;20061;-88
2023/06/14 03:53:53;;;;;;;;;;;;;;;;;;;;;
2023/06/14 03:56:19;;;;;;;6.32;2.80;;;;;;;-148.88;66.94;-17125.47;4974818;28;20034;-87
2023/06/14 03:58:45;;;;;;;7.95;2.90;;;;;;;-148.88;67.69;-17125.47;4974728;28;20027;-86
2023/06/14 04:01:12;;;;;;;9.95;3.13;;;;;;;-148.88;67.67;-17125.47;4974784;28;20493;-86
2023/06/14 04:03:37;;;;;;;5.30;3.00;;;;;;;-148.88;68.30;-17125.47;4974782;28;20106;-87
2023/06/14 04:06:04;;;;;;;4.68;3.05;;;;;;;-148.88;68.51;-17125.47;4975262;28;20062;-85
2023/06/14 04:08:33;;;;;;;5.13;3.05;;;;;;;-148.88;69.43;-17125.47;4974338;28;20037;-89
2023/06/14 04:10:58;;;;;;;4.72;3.10;;;;;;;-148.88;69.31;-17125.47;4974715;28;20038;-86
2023/06/14 04:13:24;;;;;;;4.40;2.90;;;;;;;-148.88;69.48;-17125.47;4973290;28;20035;-88
2023/06/14 04:15:52;;;;;;;7.22;3.10;;;;;;;-148.88;69.81;-17125.47;4974000;28;20023;-88
2023/06/14 04:18:19;;;;;;;6.68;3.28;;;;;;;-148.88;70.31;-17125.47;4973297;28;20031;-88
2023/06/14 04:20:45;;;;;;;5.65;2.97;;;;;;;-148.88;70.08;-17125.47;4973706;28;20494;-87
2023/06/14 04:23:17;;;;;;;5.15;3.00;;;;;;;-148.88;70.67;-17125.47;4973846;28;20034;-88
2023/06/14 04:25:44;;;;;;;4.78;3.40;;;;;;;-148.88;70.94;-17125.47;4974336;28;20113;-89
2023/06/14 04:28:15;;;;;;;4.40;2.88;;;;;;;-148.88;71.61;-17125.47;4974512;28;20030;-88
2023/06/14 04:30:41;;;;;;;5.40;2.88;;;;;;;-148.88;72.13;-17125.47;4973292;28;20419;-87
2023/06/14 04:33:06;;;;;;;4.32;2.85;;;;;;;-148.88;73.15;-17125.47;4973458;28;20553;-89
2023/06/14 04:35:32;;;;;;;6.72;3.58;;;;;;;-148.88;73.79;-17125.47;4973530;28;20409;-87
2023/06/14 04:37:59;;;;;;;6.93;3.00;;;;;;;-148.88;73.87;-17125.47;4973488;28;20055;-88
2023/06/14 04:40:25;;;;;;;5.60;3.42;;;;;;;-148.88;73.59;-17125.47;4973371;28;20031;-87
2023/06/14 04:42:50;;;;;;;5.43;3.00;;;;;;;-148.88;72.40;-17125.47;4974701;28;20101;-85
2023/06/14 04:45:16;;;;;;;9.43;3.45;;;;;;;-148.88;72.40;-17125.47;4974634;28;20033;-87
2023/06/14 04:47:43;;;;;;;5.35;2.80;;;;;;;-148.88;71.75;-17125.47;4973409;28;20389;-87
2023/06/14 04:50:10;;;;;;;6.25;3.13;;;;;;;-148.88;72.16;-17125.47;4974136;28;20048;-87
2023/06/14 04:52:36;;;;;;;4.85;3.20;;;;;;;-148.88;71.95;-17125.47;4974071;28;20026;-86
2023/06/14 04:55:02;;;;;;;7.03;2.75;;;;;;;-148.88;70.96;-17125.47;4974288;28;20031;-87
2023/06/14 04:57:28;;;;;;;3.28;2.72;;;;;;;-148.88;70.40;-17125.47;4974389;28;20027;-87
2023/06/14 04:59:55;;;;;;;7.22;3.10;;;;;;;-148.88;71.57;-17125.47;4972844;28;20058;-87
2023/06/14 05:02:25;;;;;;;5.28;3.15;;;;;;;-148.88;70.11;-17125.47;4973876;28;20023;-87
2023/06/14 05:04:51;;;;;;;6.97;3.08;;;;;;;-148.88;70.21;-17125.47;4974078;28;20027;-86
2023/06/14 05:07:16;;;;;;;3.60;2.40;;;;;;;-148.88;69.48;-17125.47;4974257;28;20106;-86
2023/06/14 05:09:42;;;;;;;5.32;2.80;;;;;;;-148.88;69.43;-17125.47;4974014;28;20051;-87
2023/06/14 05:12:07;;;;;;;3.50;2.67;;;;;;;-148.88;69.23;-17125.47;4974014;28;20031;-87
2023/06/14 05:14:33;;;;;;;4.80;2.70;;;;;;;-148.88;69.97;-17125.47;4972999;28;20037;-86
2023/06/14 05:16:59;;;;;;;4.78;2.67;;;;;;;-148.88;69.40;-17125.47;4973715;28;20477;-85
2023/06/14 05:19:24;;;;;;;5.05;2.58;;;;;;;-148.88;69.61;-17125.47;4974004;28;20022;-85
2023/06/14 05:21:50;;;;;;;6.88;3.03;;;;;;;-148.88;69.57;-17125.47;4972934;28;20029;-86
2023/06/14 05:24:17;;;;;;;5.47;2.78;;;;;;;-148.88;69.96;-17125.47;4974307;28;20429;-85
2023/06/14 05:26:43;;;;;;;5.43;2.75;;;;;;;-148.88;70.72;-17125.47;4972731;28;20158;-85
2023/06/14 05:29:08;;;;;;;4.93;2.63;;;;;;;-148.88;71.44;-17125.47;4974467;28;20590;-85
2023/06/14 05:31:34;;;;;;;4.70;2.47;;;;;;;-148.88;70.06;-17125.47;4972698;28;20030;-84
2023/06/14 05:33:59;;;;;;;5.57;2.58;;;;;;;-148.88;71.14;-17125.47;4977456;28;20023;-86
2023/06/14 05:36:25;;;;;;;4.35;2.58;;;;;;;-148.88;71.90;-17125.47;4978755;28;20077;-86
2023/06/14 05:38:57;;;;;;;4.70;2.45;;;;;;;-148.88;69.83;-17125.47;4977422;28;20023;-86
2023/06/14 05:41:22;;;;;;;4.13;2.40;;;;;;;-148.88;69.46;-17125.47;4977365;28;20029;-86
2023/06/14 05:43:48;;;;;;;3.28;2.30;;;;;;;-148.88;70.99;-17125.47;4977166;28;20035;-87
2023/06/14 05:46:13;;;;;;;9.77;2.90;;;;;;;-148.88;68.36;-17125.47;4977236;28;20030;-86
2023/06/14 05:48:38;;;;;;;4.97;2.22;;;;;;;-148.88;68.70;-17125.47;4977246;28;20034;-86
2023/06/14 05:51:04;;;;;;;2.95;2.33;;;;;;;-148.88;69.26;-17125.47;4977419;28;20022;-86
2023/06/14 05:53:29;;;;;;;3.08;2.20;;;;;;;-148.88;68.21;-17125.47;4977314;28;20029;-85
2023/06/14 05:55:54;;;;;;;4.55;2.40;;;;;;;-148.88;70.18;-17125.47;4977335;28;20110;-87
2023/06/14 05:58:22;;;;;;;5.45;2.50;;;;;;;-148.88;71.59;-17125.47;4977500;28;20031;-86
2023/06/14 06:00:48;;;;;;;3.42;2.25;;;;;;;-148.88;70.75;-17125.47;4977175;28;20516;-86
2023/06/14 06:03:13;;;;;;;7.18;2.65;;;;;;;-148.88;68.79;-17125.47;4978216;28;20066;-85
2023/06/14 06:05:39;;;;;;;4.35;2.30;;;;;;;-148.88;65.71;-17125.47;4977076;28;20023;-86
2023/06/14 06:08:05;;;;;;;6.28;2.00;;;;;;;-148.88;64.85;-17125.47;4976839;28;20101;-84
2023/06/14 06:10:30;;;;;;;4.05;2.15;;;;;;;-148.88;64.35;-17125.47;4977806;28;20023;-85
2023/06/14 06:12:55;;;;;;;5.07;2.20;;;;;;;-148.88;63.93;-17125.47;4977383;28;20033;-85
2023/06/14 06:15:21;;;;;;;4.60;2.13;;;;;;;-148.88;64.91;-17125.47;4976749;28;20433;-85
2023/06/14 06:17:46;;;;;;;4.70;2.30;;;;;;;-148.88;64.43;-17125.47;4976680;28;20110;-85
2023/06/14 06:20:14;;;;;;;5.78;2.55;;;;;;;-148.88;65.02;-17125.47;4976819;28;20086;-85
2023/06/14 06:22:40;;;;;;;4.05;2.10;;;;;;;-148.88;63.43;-17125.47;4976546;28;20027;-84
2023/06/14 06:25:06;;;;;;;6.70;2.58;;;;;;;-148.88;62.63;-17125.47;4976429;28;20023;-85
2023/06/14 06:27:31;;;;;;;7.25;2.83;;;;;;;-148.88;64.44;-17125.47;4977488;28;20114;-85
2023/06/14 06:29:57;;;;;;;4.45;2.20;;;;;;;-148.88;64.23;-17125.47;4975834;28;20054;-86
2023/06/14 06:32:22;;;;;;;4.20;2.20;;;;;;;-148.88;63.28;-17125.47;4976548;28;20625;-87
2023/06/14 06:34:48;;;;;;;6.95;2.47;;;;;;;-148.88;62.45;-17125.47;4976670;28;20023;-84
2023/06/14 06:37:13;;;;;;;4.28;2.28;;;;;;;-148.88;64.30;-17125.47;4975375;28;20126;-83
2023/06/14 06:39:39;;;;;;;4.20;2.20;;;;;;;-148.88;64.53;-17125.47;4975838;28;20059;-84
2023/06/14 06:42:05;;;;;;;4.82;2.08;;;;;;;-148.88;64.17;-17125.47;4976196;28;20135;-85
2023/06/14 06:44:30;;;;;;;5.97;2.20;;;;;;;-148.88;63.01;-17125.47;4973882;28;20041;-85
2023/06/14 06:46:57;;;;;;;4.95;2.40;;;;;;;-148.88;63.40;-17125.47;4976615;28;20023;-84
2023/06/14 06:49:22;;;;;;;3.45;1.92;;;;;;;-148.88;63.95;-17125.47;4976138;28;20019;-84
2023/06/14 06:52:06;;;;;;;5.13;1.90;;;;;;;-148.88;59.78;-17125.47;4976401;28;20450;-84
2023/06/14 06:54:33;;;;;;;3.88;1.83;;;;;;;-148.88;59.23;-17125.47;4974904;28;20133;-85
2023/06/14 06:56:59;;;;;;;5.68;2.17;;;;;;;-148.88;59.34;-17125.47;4976467;28;20027;-84
2023/06/14 06:59:25;;;;;;;3.15;1.70;;;;;;;-148.88;58.00;-17125.47;4976315;28;20023;-83
2023/06/14 07:01:50;;;;;;;2.70;1.52;;;;;;;-148.88;59.42;-17125.47;4976185;28;20085;-84
2023/06/14 07:04:16;;;;;;;4.43;1.75;;;;;;;-148.88;58.24;-17125.47;4977084;28;20027;-84
2023/06/14 07:06:42;;;;;;;6.55;1.92;;;;;;;-148.88;57.91;-17125.47;4977009;28;20034;-83
2023/06/14 07:09:12;;;;;;;3.05;1.60;;;;;;;-148.88;57.44;-17125.47;4976911;28;20027;-83
2023/06/14 07:11:39;;;;;;;3.25;1.35;;;;;;;-148.88;57.46;-17125.47;4974540;28;20046;-84
2023/06/14 07:14:04;;;;;;;3.83;1.70;;;;;;;-148.88;57.84;-17125.47;4974986;28;20109;-84
2023/06/14 07:16:30;;;;;;;3.67;1.50;;;;;;;-148.88;59.68;-17125.47;4976230;28;20065;-85
2023/06/14 07:18:55;;;;;;;2.40;1.50;;;;;;;-148.88;57.20;-17125.47;4975900;28;20037;-84
2023/06/14 07:21:20;;;;;;;3.83;1.60;;;;;;;-148.88;55.81;-17125.47;4976212;28;20501;-84
2023/06/14 07:23:46;;;;;;;3.33;1.38;;;;;;;-148.88;55.67;-17125.47;4974665;28;20018;-84
2023/06/14 07:26:14;;;;;;;3.00;1.25;;;;;;;-148.88;58.21;-17125.47;4977027;28;20030;-84
2023/06/14 07:28:39;;;;;;;3.42;1.50;;;;;;;-148.88;55.00;-17125.47;4975327;28;20109;-86
2023/06/14 07:31:05;;;;;;;3.08;1.50;;;;;;;-148.88;56.80;-17125.47;4975513;28;20067;-85
2023/06/14 07:33:30;;;;;;;3.90;1.52;;;;;;;-148.88;55.26;-17125.47;4975772;28;20074;-84
2023/06/14 07:35:55;;;;;;;4.20;1.90;;;;;;;-148.88;54.27;-17125.47;4976826;28;20077;-86
2023/06/14 07:38:21;;;;;;;2.47;1.52;;;;;;;-148.88;54.43;-17125.47;4975540;28;20034;-85
2023/06/14 07:40:46;;;;;;;3.45;1.55;;;;;;;-148.88;55.19;-17125.47;4976062;28;20033;-84
2023/06/14 07:43:12;;;;;;;3.53;1.80;;;;;;;-148.88;55.67;-17125.47;4974878;28;20073;-84
2023/06/14 07:45:37;;;;;;;2.83;1.70;;;;;;;-148.88;56.71;-17125.47;4976267;28;20065;-84
2023/06/14 07:48:03;;;;;;;2.85;1.67;;;;;;;-148.88;56.18;-17125.47;4979468;28;20027;-84
2023/06/14 07:50:28;;;;;;;3.95;1.70;;;;;;;-148.88;56.56;-17125.47;4976151;28;20023;-84
2023/06/14 07:52:54;;;;;;;4.60;1.77;;;;;;;-148.88;54.85;-17125.47;4967178;28;20096;-85
2023/06/14 07:55:20;;;;;;;2.22;1.30;;;;;;;-148.88;58.37;-17125.47;4957035;28;20035;-84
2023/06/14 07:57:46;;;;;;;4.22;1.67;;;;;;;-148.88;55.76;-17125.47;4956113;28;20457;-86
2023/06/14 08:00:15;;;;;;;4.78;2.00;;;;;;;-148.88;52.83;-17125.47;4954904;29;20034;-86
2023/06/14 08:02:44;;;;;;;4.18;1.60;;;;;;;-148.88;51.18;-17125.47;4955865;28;20036;-85
2023/06/14 08:05:12;;;;;;;3.95;1.52;;;;;;;-148.88;53.36;-17125.47;4956366;28;20024;-86
2023/06/14 08:07:39;;;;;;;2.75;1.60;;;;;;;-148.88;53.64;-17125.47;4955954;28;20031;-86
2023/06/14 08:10:05;;;;;;;3.10;1.50;;;;;;;-148.88;51.90;-17125.47;4955844;28;20480;-87
2023/06/14 08:12:30;;;;;;;4.97;1.70;;;;;;;-148.88;50.64;-17125.47;4956543;28;20493;-87
2023/06/14 08:14:56;;;;;;;3.15;1.77;;;;;;;-148.88;50.74;-17125.47;4961323;28;20039;-91
2023/06/14 08:17:21;;;;;;;2.85;1.70;;;;;;;-148.88;51.07;-17125.47;4958489;28;20023;-89
2023/06/14 08:19:46;;;;;;;4.35;1.60;;;;;;;-148.88;50.74;-17125.47;4956999;29;20027;-89
2023/06/14 08:22:12;;;;;;;4.25;1.80;;;;;;;-148.88;50.29;-17125.47;4957319;28;20016;-89
2023/06/14 08:24:39;;;;;;;5.20;2.03;;;;;;;-148.88;50.48;-17125.47;4956958;28;20130;-89
2023/06/14 08:27:05;;;;;;;2.88;1.88;;;;;;;-148.88;49.46;-17125.47;4958555;28;20462;-90
2023/06/14 08:29:32;;;;;;;3.33;1.77;;;;;;;-148.88;50.79;-17125.47;4958298;29;20114;-91
2023/06/14 08:31:57;;;;;;;5.20;1.65;;;;;;;-148.88;49.80;-17125.47;4959712;28;20030;-91
2023/06/14 08:34:23;;;;;;;4.05;1.48;;;;;;;-148.88;48.14;-17125.47;4959681;28;20027;-89
2023/06/14 08:36:50;;;;;;;6.43;1.65;;;;;;;-148.88;49.65;-17125.47;4957287;28;20024;-87
2023/06/14 08:39:15;;;;;;;3.88;1.60;;;;;;;-148.88;48.77;-17125.47;4955583;29;20105;-90
2023/06/14 08:41:43;;;;;;;5.00;1.98;;;;;;;-148.88;49.37;-17125.47;4958270;28;20035;-91
2023/06/14 08:44:08;;;;;;;2.58;1.70;;;;;;;-148.88;50.75;-17125.47;4957504;28;20031;-88
2023/06/14 08:46:35;;;;;;;2.58;1.60;;;;;;;-148.88;48.77;-17125.47;4956846;28;20034;-89
2023/06/14 08:49:02;;;;;;;3.83;1.70;;;;;;;-148.88;48.65;-17125.47;4956500;28;20077;-89
2023/06/14 08:51:33;;;;;;;5.53;1.70;;;;;;;-148.88;49.77;-17125.47;4956259;28;20031;-86
2023/06/14 08:54:01;;;;;;;2.35;1.55;;;;;;;-148.88;51.12;-17125.47;4955012;29;20031;-86
2023/06/14 08:56:28;;;;;;;3.25;1.80;;;;;;;-148.88;50.50;-17125.47;4957014;28;20031;-87
2023/06/14 08:58:54;;;;;;;2.60;1.60;;;;;;;-148.88;48.30;-17125.47;4957999;28;20034;-90
2023/06/14 09:01:21;;;;;;;3.65;1.50;;;;;;;-148.88;48.99;-17125.47;4956146;28;20450;-89
2023/06/14 09:03:48;;;;;;;3.53;1.70;;;;;;;-148.88;47.98;-17125.47;4958821;28;20070;-90
2023/06/14 09:06:15;;;;;;;4.30;1.60;;;;;;;-148.88;48.74;-17125.47;4956373;28;20031;-90
2023/06/14 09:08:44;;;;;;;4.53;1.67;;;;;;;-148.88;48.86;-17125.47;4960647;28;20043;-90
2023/06/14 09:11:14;;;;;;;5.28;1.90;;;;;;;-148.88;48.29;-17125.47;4961673;28;20043;-88
2023/06/14 09:13:40;;;;;;;3.28;1.92;;;;;;;-148.88;47.91;-17125.47;4960361;28;20098;-88
2023/06/14 09:16:06;;;;;;;3.13;1.52;;;;;;;-148.88;46.13;-17125.47;4959767;28;20063;-86
2023/06/14 09:18:50;;;;;;;3.97;1.77;;;;;;;-148.88;47.91;-17125.47;4959663;28;20031;-91
2023/06/14 09:21:17;;;;;;;2.50;1.60;;;;;;;-148.88;47.02;-17125.47;4959724;28;20025;-90
2023/06/14 09:23:47;;;;;;;4.07;1.90;;;;;;;-148.88;44.90;-17125.47;4962452;28;20117;-90
2023/06/14 09:26:15;;;;;;;3.10;1.70;;;;;;;-148.88;46.17;-17125.47;4960271;29;20418;-91
2023/06/14 09:28:48;;;;;;;5.95;1.67;;;;;;;-148.88;45.05;-17125.47;4960858;28;20082;-89
2023/06/14 09:31:15;;;;;;;3.05;1.63;;;;;;;-148.88;47.04;-17125.47;4960285;28;20027;-90
2023/06/14 09:33:49;;;;;;;4.57;1.63;;;;;;;-148.88;44.36;-17125.47;4958659;29;20385;-90
2023/06/14 09:36:22;;;;;;;3.40;1.50;;;;;;;-148.88;44.40;-17125.47;4958038;29;20505;-90
2023/06/14 09:39:05;;;;;;;5.85;1.63;;;;;;;-148.88;43.92;-17125.47;4959329;28;20110;-89
2023/06/14 09:41:36;;;;;;;2.78;1.63;;;;;;;-148.88;43.80;-17125.47;4958135;29;20047;-90
2023/06/14 09:44:03;;;;;;;4.03;1.60;;;;;;;-148.88;43.19;-17125.47;4959272;28;20023;-91
2023/06/14 09:46:30;;;;;;;2.78;1.50;;;;;;;-148.88;42.99;-17125.47;4959210;28;20027;-90
2023/06/14 09:48:56;;;;;;;2.70;1.45;;;;;;;-148.88;42.17;-17125.47;4959498;28;20106;-89
2023/06/14 09:51:26;;;;;;;2.25;1.27;;;;;;;-148.88;41.77;-17125.47;4959117;28;20044;-89
2023/06/14 09:53:52;;;;;;;3.42;1.42;;;;;;;-148.88;42.72;-17125.47;4960915;28;20193;-92
2023/06/14 09:56:27;;;;;;;3.88;1.60;;;;;;;-148.88;39.74;-17125.47;4959995;28;20479;-91
2023/06/14 09:58:56;;;;;;;2.75;1.50;;;;;;;-148.88;42.13;-17125.47;4959848;28;20045;-90
2023/06/14 10:01:24;;;;;;;2.63;1.50;;;;;;;-148.88;41.80;-17125.47;4961559;28;20046;-91
2023/06/14 10:03:52;;;;;;;2.90;1.50;;;;;;;-148.88;40.98;-17125.47;4960795;28;20493;-90
2023/06/14 10:06:18;;;;;;;3.78;1.50;;;;;;;-148.88;41.19;-17125.47;4960012;28;20031;-90
2023/06/14 10:08:44;;;;;;;2.67;1.58;;;;;;;-148.88;40.05;-17125.47;4961788;28;20022;-89
2023/06/14 10:11:12;;;;;;;4.63;1.52;;;;;;;-148.88;40.20;-17125.47;4960515;28;20171;-91
2023/06/14 10:13:38;;;;;;;4.32;1.60;;;;;;;-148.88;40.87;-17125.47;4957618;29;20030;-89
2023/06/14 10:16:17;;;;;;;3.95;1.65;;;;;;;-148.88;42.21;-17125.47;4960848;29;20027;-89
2023/06/14 10:19:02;;;;;;;3.92;1.63;;;;;;;-148.88;41.49;-17125.47;4965177;28;20031;-89
2023/06/14 10:21:53;;;;;;;3.50;1.63;;;;;;;-148.88;40.31;-17125.47;4960965;28;20031;-90
2023/06/14 10:24:20;;;;;;;4.40;1.58;;;;;;;-148.88;39.20;-17125.47;4959178;28;20038;-90
2023/06/14 10:26:54;;;;;;;2.45;1.42;;;;;;;-148.88;38.81;-17125.47;4958829;29;20023;-90
2023/06/14 10:29:20;;;;;;;3.20;1.42;;;;;;;-148.88;39.37;-17125.47;4959084;29;20343;-90
2023/06/14 10:31:47;;;;;;;5.43;1.50;;;;;;;-148.88;37.52;-17125.47;4958592;29;20027;-92
2023/06/14 10:34:23;;;;;;;3.33;1.58;;;;;;;-148.88;38.39;-17125.47;4958831;28;20038;-91
2023/06/14 10:37:11;;;;;;;3.72;1.65;;;;;;;-148.88;39.02;-17125.47;4958174;29;20067;-92
2023/06/14 10:39:46;;;;;;;3.50;1.60;;;;;;;-148.88;38.50;-17125.47;4958725;28;20034;-91
2023/06/14 10:42:13;;;;;;;3.13;1.50;;;;;;;-148.88;38.80;-17125.47;4956722;29;20031;-90
2023/06/14 10:44:42;;;;;;;3.25;1.48;;;;;;;-148.88;38.86;-17125.47;4959374;28;20497;-89
2023/06/14 10:47:24;;;;;;;3.50;1.70;;;;;;;-148.88;38.33;-17125.47;4958068;29;20398;-91
2023/06/14 10:49:55;;;;;;;2.65;1.63;;;;;;;-148.88;37.39;-17125.47;4959741;28;20030;-90
2023/06/14 10:52:27;;;;;;;2.50;1.35;;;;;;;-148.88;38.86;-17125.47;4958448;28;20513;-91
2023/06/14 10:55:22;;;;;;;5.30;1.60;;;;;;;-148.88;38.76;-17125.47;4958613;28;20244;-90
2023/06/14 10:57:55;;;;;;;3.05;1.50;;;;;;;-148.88;38.17;-17125.47;4958741;29;20038;-89
2023/06/14 11:00:24;;;;;;;3.90;1.48;;;;;;;-148.88;36.83;-17125.47;4957426;29;20143;-91
2023/06/14 11:03:13;;;;;;;2.95;1.35;;;;;;;-148.88;36.27;-17125.47;4960601;28;20478;-91
2023/06/14 11:05:49;;;;;;;2.35;1.33;;;;;;;-148.88;37.03;-17125.47;4959600;28;20019;-91
2023/06/14 11:08:20;;;;;;;2.65;1.75;;;;;;;-148.88;35.71;-17125.47;4957206;29;20023;-91
2023/06/14 11:10:50;;;;;;;2.95;1.45;;;;;;;-148.88;34.66;-17125.47;4957365;29;20498;-92